Bookmark and Share
Track history (hours):
 

Ming Zhou 56

Last reported at 2014-Apr-18 08:33 UTC. Time now 2014-Apr-20 03:14 UTC.
Position N 29°53' E 122°03'.

Length 123 m; draft 6.6 m.

Type: Cargo ship. MMSI: 412165000.

NotesDate/timePositionNaut miles runAvg speedWind from/ knotsBaromVisibWave heightAir tempDewpointWater temp
2014-Apr-18 08:33N 29°53' E 122°03'4 3.7
2014-Apr-18 07:33N 29°56' E 122°00'4 1.0
2014-Apr-18 04:08N 29°60' E 121°59'0 0.1
2014-Apr-18 03:32N 29°60' E 121°59'3 0.1
2014-Apr-17 00:18N 30°02' E 121°57'5 0.3
2014-Apr-16 09:33N 29°58' E 121°59'5 5.2
2014-Apr-16 08:33N 29°53' E 122°03'0 0.0
2014-Apr-16 07:32N 29°53' E 122°03'0 0.0
2014-Apr-16 06:29N 29°53' E 122°03'0 0.0
2014-Apr-16 05:20N 29°53' E 122°03'0 0.0
2014-Apr-16 04:29N 29°53' E 122°03'0 0.0
2014-Apr-16 03:17N 29°53' E 122°03'0 0.0
2014-Apr-16 02:32N 29°53' E 122°03'2 2.2
2014-Apr-16 01:33N 29°55' E 122°04'7 7.2
2014-Apr-16 00:32N 29°54' E 122°13'0 0.0
2014-Apr-15 23:32N 29°54' E 122°13'4 4.1
2014-Apr-15 22:32N 29°51' E 122°10'9 9.4
2014-Apr-15 21:31N 29°44' E 122°03'262 9.4
2014-Apr-14 17:34N 26°00' E 119°29'259 7.2
2014-Apr-13 05:33N 29°41' E 122°03'1313.5
2014-Apr-13 04:33N 29°53' E 122°09'5 5.3
2014-Apr-13 03:33N 29°53' E 122°03'0 0.0
2014-Apr-13 02:28N 29°53' E 122°03'0 0.0
2014-Apr-13 01:28N 29°53' E 122°03'0 0.1
2014-Apr-13 00:28N 29°53' E 122°03'0 0.0
2014-Apr-12 23:28N 29°53' E 122°03'0 0.0
2014-Apr-12 22:22N 29°53' E 122°03'0 0.0
2014-Apr-12 21:28N 29°53' E 122°03'0 0.0
2014-Apr-12 20:28N 29°53' E 122°03'1 0.6
2014-Apr-12 19:33N 29°54' E 122°03'0 0.2
2014-Apr-12 18:33N 29°54' E 122°03'4 4.4
2014-Apr-12 17:34N 29°57' E 121°60'6 0.1
2014-Apr-10 19:21N 30°02' E 121°57'5 0.4
2014-Apr-10 08:33N 29°57' E 121°55'11 8.7
2014-Apr-10 07:16N 30°08' E 121°51'30 5.3
2014-Apr-10 01:31N 30°32' E 121°30'41 1.4
2014-Apr-08 19:31N 29°58' E 121°55'8 8.0
2014-Apr-08 18:33N 29°54' E 122°02'0 0.1
2014-Apr-08 17:25N 29°54' E 122°02'0 0.0
2014-Apr-08 16:31N 29°54' E 122°02'0 0.1
2014-Apr-08 15:31N 29°54' E 122°02'0 0.0
2014-Apr-08 14:31N 29°54' E 122°02'0 0.0
2014-Apr-08 13:31N 29°54' E 122°02'0 0.1
2014-Apr-08 12:33N 29°54' E 122°02'6 5.7
2014-Apr-08 11:33N 29°59' E 122°00'1 0.5
2014-Apr-08 10:31N 29°59' E 121°60'0 0.0
2014-Apr-08 09:31N 29°59' E 121°60'  

Dump ship's entire track history

sailing weather and tide predictions

Ming Zhou 56 — BLAC4 — position and weather